Time;durP1;ratioP1;P1;durP2;ratioP2;P2;SDS_P1;SDS_P2;PMS_P1;PMS_P2;Temp;Humidity;BMP_temperature;BMP_pressure;BME280_temperature;BME280_humidity;BME280_pressure;Samples;Min_cycle;Max_cycle;Signal;HPM_P1;HPM_P2
2022/08/09 00:00:56;;;;;;;2.77;1.70;;;;;;;;;;5072625;28;20078;-71
2022/08/09 00:03:21;;;;;;;2.37;1.87;;;;;;;;;;5072474;28;20299;-71
2022/08/09 00:05:46;;;;;;;6.43;1.80;;;;;;;;;;5072316;28;20265;-71
2022/08/09 00:08:11;;;;;;;4.27;2.00;;;;;;;;;;5072365;28;20265;-70
2022/08/09 00:10:38;;;;;;;2.80;1.70;;;;;;;;;;5072435;28;20261;-72
2022/08/09 00:13:05;;;;;;;2.20;1.70;;;;;;;;;;5072415;28;20355;-72
2022/08/09 00:15:30;;;;;;;4.50;2.30;;;;;;;;;;5072264;28;20025;-70
2022/08/09 00:17:55;;;;;;;10.77;1.88;;;;;;;;;;5072507;28;20024;-71
2022/08/09 00:20:21;;;;;;;2.20;1.80;;;;;;;;;;5072445;28;20020;-71
2022/08/09 00:22:46;;;;;;;3.20;1.83;;;;;;;;;;5072151;28;20254;-70
2022/08/09 00:25:11;;;;;;;3.40;2.17;;;;;;;;;;5072085;28;20341;-71
2022/08/09 00:27:36;;;;;;;2.90;1.67;;;;;;;;;;5072170;28;20285;-71
2022/08/09 00:30:03;;;;;;;5.73;1.80;;;;;;;;;;5072116;28;20265;-70
2022/08/09 00:32:28;;;;;;;4.47;1.90;;;;;;;;;;5072391;28;20269;-70
2022/08/09 00:34:55;;;;;;;3.30;2.03;;;;;;;;;;5075331;28;20032;-71
2022/08/09 00:37:20;;;;;;;2.13;1.70;;;;;;;;;;5076748;28;20099;-70
2022/08/09 00:39:45;;;;;;;4.28;2.50;;;;;;;;;;5058917;28;20052;-71
2022/08/09 00:42:11;;;;;;;4.15;1.80;;;;;;;;;;5076036;28;20016;-71
2022/08/09 00:44:36;;;;;;;6.78;1.98;;;;;;;;;;5057978;28;20033;-70
2022/08/09 00:47:01;;;;;;;7.07;2.17;;;;;;;;;;5075649;28;20070;-71
2022/08/09 00:49:27;;;;;;;3.13;2.10;;;;;;;;;;5075681;28;20583;-71
2022/08/09 00:51:55;;;;;;;5.05;2.10;;;;;;;;;;5075734;28;20626;-71
2022/08/09 00:54:20;;;;;;;3.00;2.00;;;;;;;;;;5075564;28;20025;-71
2022/08/09 00:56:45;;;;;;;3.85;2.00;;;;;;;;;;5075301;28;20031;-71
2022/08/09 00:59:11;;;;;;;5.90;2.15;;;;;;;;;;5075243;28;20374;-72
2022/08/09 01:01:39;;;;;;;4.00;2.17;;;;;;;;;;5075259;28;20021;-71
2022/08/09 01:04:36;;;;;;;3.22;1.80;;;;;;;;;;5075453;28;20253;-69
2022/08/09 01:07:35;;;;;;;3.65;2.05;;;;;;;;;;5074615;28;20112;-71
2022/08/09 01:10:08;;;;;;;3.40;1.90;;;;;;;;;;5075213;28;20077;-72
2022/08/09 01:12:47;;;;;;;2.97;1.90;;;;;;;;;;5075865;28;20063;-72
2022/08/09 01:15:20;;;;;;;3.95;2.05;;;;;;;;;;5075186;28;20035;-70
2022/08/09 01:17:54;;;;;;;2.37;1.87;;;;;;;;;;5075650;28;20039;-72
2022/08/09 01:20:38;;;;;;;3.40;1.92;;;;;;;;;;5075243;28;20405;-71
2022/08/09 01:23:19;;;;;;;5.18;2.10;;;;;;;;;;5057387;28;20439;-70
2022/08/09 01:26:09;;;;;;;4.47;2.20;;;;;;;;;;5057189;28;20335;-72
2022/08/09 01:28:37;;;;;;;2.53;2.00;;;;;;;;;;5075061;28;20047;-70
2022/08/09 01:31:05;;;;;;;5.95;2.20;;;;;;;;;;5074752;28;20035;-70
2022/08/09 01:33:40;;;;;;;4.25;2.00;;;;;;;;;;5074677;28;20035;-71
2022/08/09 01:36:10;;;;;;;3.50;2.00;;;;;;;;;;5075063;28;20386;-70
2022/08/09 01:38:39;;;;;;;3.78;1.90;;;;;;;;;;5074482;28;20025;-71
2022/08/09 01:41:04;;;;;;;3.22;1.95;;;;;;;;;;5074610;28;20025;-71
2022/08/09 01:43:36;;;;;;;4.60;2.00;;;;;;;;;;5074475;28;20031;-70
2022/08/09 01:46:01;;;;;;;3.22;1.85;;;;;;;;;;5073653;28;20445;-71
2022/08/09 01:48:28;;;;;;;8.30;2.17;;;;;;;;;;5075014;28;20146;-71
2022/08/09 01:50:56;;;;;;;4.47;2.28;;;;;;;;;;5056497;28;20470;-70
2022/08/09 01:53:22;;;;;;;3.38;2.10;;;;;;;;;;5074303;28;20054;-70
2022/08/09 01:55:48;;;;;;;2.35;2.10;;;;;;;;;;5074540;28;20021;-71
2022/08/09 01:58:15;;;;;;;7.10;2.20;;;;;;;;;;5057000;28;20017;-71
2022/08/09 02:00:43;;;;;;;4.63;2.00;;;;;;;;;;5074116;28;20443;-71
2022/08/09 02:03:11;;;;;;;4.25;2.20;;;;;;;;;;5073991;28;20028;-71
2022/08/09 02:05:36;;;;;;;4.20;2.00;;;;;;;;;;5074309;28;20069;-71
2022/08/09 02:08:06;;;;;;;4.68;2.20;;;;;;;;;;5074016;28;20024;-70
2022/08/09 02:10:37;;;;;;;6.00;2.35;;;;;;;;;;5039409;28;20024;-70
2022/08/09 02:13:05;;;;;;;3.70;2.17;;;;;;;;;;5073798;28;20035;-71
2022/08/09 02:15:37;;;;;;;2.97;1.95;;;;;;;;;;5073989;28;20086;-70
2022/08/09 02:18:04;;;;;;;3.33;2.10;;;;;;;;;;5074054;28;20052;-71
2022/08/09 02:20:31;;;;;;;3.00;2.15;;;;;;;;;;5073715;28;20474;-71
2022/08/09 02:23:06;;;;;;;4.03;1.98;;;;;;;;;;5073816;28;20031;-71
2022/08/09 02:25:35;;;;;;;7.13;2.10;;;;;;;;;;5073812;28;20032;-71
2022/08/09 02:28:06;;;;;;;3.55;2.00;;;;;;;;;;5073822;28;20028;-71
2022/08/09 02:30:38;;;;;;;4.50;2.38;;;;;;;;;;5073731;28;20044;-71
2022/08/09 02:33:04;;;;;;;7.03;2.03;;;;;;;;;;5073541;28;20493;-71
2022/08/09 02:35:34;;;;;;;3.22;2.25;;;;;;;;;;5074042;28;20461;-71
2022/08/09 02:38:03;;;;;;;3.35;1.85;;;;;;;;;;5073295;28;20036;-71
2022/08/09 02:40:29;;;;;;;4.25;2.08;;;;;;;;;;5073703;28;20174;-71
2022/08/09 02:42:59;;;;;;;4.22;2.30;;;;;;;;;;5073317;28;20086;-71
2022/08/09 02:45:29;;;;;;;3.13;2.40;;;;;;;;;;5073355;28;20103;-71
2022/08/09 02:48:00;;;;;;;5.07;2.47;;;;;;;;;;5073897;28;20024;-71
2022/08/09 02:50:31;;;;;;;4.18;2.33;;;;;;;;;;5073616;28;20040;-76
2022/08/09 02:53:01;;;;;;;5.00;2.30;;;;;;;;;;5079164;28;20021;-82
2022/08/09 02:55:29;;;;;;;3.55;2.40;;;;;;;;;;5071378;28;20486;-81
2022/08/09 02:57:55;;;;;;;4.00;2.80;;;;;;;;;;5079345;28;20027;-83
2022/08/09 03:00:22;;;;;;;2.70;2.10;;;;;;;;;;5080220;28;20039;-83
2022/08/09 03:02:52;;;;;;;4.53;2.30;;;;;;;;;;5078854;28;20036;-80
2022/08/09 03:05:18;;;;;;;2.88;2.30;;;;;;;;;;5061885;28;20043;-81
2022/08/09 03:07:45;;;;;;;4.07;2.25;;;;;;;;;;5061946;28;20031;-82
2022/08/09 03:10:11;;;;;;;2.80;1.90;;;;;;;;;;5062693;28;20038;-80
2022/08/09 03:12:38;;;;;;;4.70;2.50;;;;;;;;;;5081153;28;20039;-82
2022/08/09 03:15:06;;;;;;;5.82;2.45;;;;;;;;;;5080947;28;20055;-81
2022/08/09 03:17:31;;;;;;;6.25;2.60;;;;;;;;;;5061310;28;20055;-80
2022/08/09 03:19:59;;;;;;;3.45;2.40;;;;;;;;;;5079556;28;20028;-83
2022/08/09 03:22:28;;;;;;;3.85;2.35;;;;;;;;;;5049383;28;20130;-81
2022/08/09 03:24:53;;;;;;;6.43;2.42;;;;;;;;;;5061395;28;20021;-81
2022/08/09 03:27:19;;;;;;;4.72;2.22;;;;;;;;;;5080212;28;20031;-81
2022/08/09 03:29:45;;;;;;;2.75;2.20;;;;;;;;;;5086491;28;20024;-82
2022/08/09 03:32:14;;;;;;;3.78;2.33;;;;;;;;;;5061743;28;20027;-81
2022/08/09 03:34:40;;;;;;;3.08;2.13;;;;;;;;;;5078385;28;20037;-83
2022/08/09 03:37:05;;;;;;;4.60;2.63;;;;;;;;;;5077805;28;20093;-82
2022/08/09 03:39:30;;;;;;;3.20;2.22;;;;;;;;;;5059979;28;20474;-80
2022/08/09 03:41:56;;;;;;;4.85;2.38;;;;;;;;;;5078333;28;20032;-80
2022/08/09 03:44:23;;;;;;;5.07;2.47;;;;;;;;;;5060001;28;20036;-82
2022/08/09 03:46:49;;;;;;;6.28;2.40;;;;;;;;;;5063034;28;20388;-82
2022/08/09 03:49:17;;;;;;;7.50;3.08;;;;;;;;;;5082530;28;20036;-82
2022/08/09 03:51:45;;;;;;;5.90;2.50;;;;;;;;;;5079915;28;20082;-80
2022/08/09 03:54:13;;;;;;;4.55;2.30;;;;;;;;;;5079348;28;20051;-82
2022/08/09 03:56:39;;;;;;;6.40;2.40;;;;;;;;;;5060563;28;20029;-83
2022/08/09 03:59:05;;;;;;;3.78;2.30;;;;;;;;;;5060391;28;20093;-79
2022/08/09 04:01:30;;;;;;;7.22;2.50;;;;;;;;;;5059476;28;20029;-80
2022/08/09 04:03:57;;;;;;;6.72;2.20;;;;;;;;;;5076870;28;20050;-82
2022/08/09 04:06:22;;;;;;;4.82;2.70;;;;;;;;;;5078072;28;20048;-81
2022/08/09 04:08:47;;;;;;;5.17;2.40;;;;;;;;;;5060835;28;20035;-80
2022/08/09 04:11:13;;;;;;;5.05;2.22;;;;;;;;;;5081316;28;20264;-80
2022/08/09 04:13:38;;;;;;;4.97;2.55;;;;;;;;;;5081141;28;20025;-82
2022/08/09 04:16:04;;;;;;;5.72;2.42;;;;;;;;;;5081372;28;20020;-80
2022/08/09 04:18:29;;;;;;;5.03;2.53;;;;;;;;;;5081704;28;20112;-81
2022/08/09 04:20:54;;;;;;;5.47;2.40;;;;;;;;;;5081918;28;20038;-80
2022/08/09 04:23:20;;;;;;;7.60;2.55;;;;;;;;;;5065031;28;20273;-80
2022/08/09 04:25:45;;;;;;;3.15;2.28;;;;;;;;;;5083320;28;20016;-82
2022/08/09 04:28:11;;;;;;;6.82;2.45;;;;;;;;;;5082845;28;20055;-81
2022/08/09 04:30:36;;;;;;;3.03;2.20;;;;;;;;;;5081706;28;20036;-82
2022/08/09 04:33:01;;;;;;;7.15;2.80;;;;;;;;;;5064114;28;20025;-82
2022/08/09 04:35:26;;;;;;;5.43;2.90;;;;;;;;;;5082357;28;20138;-82
2022/08/09 04:37:52;;;;;;;4.43;2.53;;;;;;;;;;5063888;28;20029;-82
2022/08/09 04:40:17;;;;;;;6.97;2.28;;;;;;;;;;5080616;28;20033;-81
2022/08/09 04:42:42;;;;;;;3.97;2.50;;;;;;;;;;5081177;28;20485;-83
2022/08/09 04:45:08;;;;;;;6.20;2.45;;;;;;;;;;5081131;28;20053;-82
2022/08/09 04:47:34;;;;;;;4.47;2.67;;;;;;;;;;5063069;28;20025;-81
2022/08/09 04:49:59;;;;;;;4.22;2.38;;;;;;;;;;5080930;28;20029;-82
2022/08/09 04:52:26;;;;;;;4.00;2.50;;;;;;;;;;5081364;28;20432;-82
2022/08/09 04:54:53;;;;;;;4.88;2.38;;;;;;;;;;5081536;28;20304;-81
2022/08/09 04:57:20;;;;;;;4.95;2.50;;;;;;;;;;5064410;28;20031;-82
2022/08/09 04:59:45;;;;;;;4.88;3.10;;;;;;;;;;5082203;28;20103;-81
2022/08/09 05:02:10;;;;;;;4.20;2.90;;;;;;;;;;5081337;28;20453;-82
2022/08/09 05:04:35;;;;;;;11.70;2.50;;;;;;;;;;5082690;28;20275;-82
2022/08/09 05:07:01;;;;;;;5.93;2.80;;;;;;;;;;5081786;28;20024;-81
2022/08/09 05:09:29;;;;;;;8.25;2.75;;;;;;;;;;5064812;28;20488;-81
2022/08/09 05:11:54;;;;;;;6.03;3.03;;;;;;;;;;5082091;28;20021;-81
2022/08/09 05:14:19;;;;;;;3.75;2.47;;;;;;;;;;5082509;28;20584;-81
2022/08/09 05:16:45;;;;;;;5.32;2.72;;;;;;;;;;5065371;28;20385;-80
2022/08/09 05:19:13;;;;;;;6.47;2.45;;;;;;;;;;5063040;28;20443;-83
2022/08/09 05:21:41;;;;;;;7.90;2.90;;;;;;;;;;5081216;28;20047;-81
2022/08/09 05:24:32;;;;;;;6.50;2.58;;;;;;;;;;5082165;28;20036;-83
2022/08/09 05:27:03;;;;;;;4.53;2.60;;;;;;;;;;5060187;28;20044;-82
2022/08/09 05:29:29;;;;;;;3.42;2.45;;;;;;;;;;5082315;28;20060;-82
2022/08/09 05:31:58;;;;;;;4.53;2.50;;;;;;;;;;5083082;28;20039;-82
2022/08/09 05:34:30;;;;;;;3.50;2.38;;;;;;;;;;5082266;28;20024;-78
2022/08/09 05:36:56;;;;;;;7.18;2.63;;;;;;;;;;5064503;28;20040;-80
2022/08/09 05:39:22;;;;;;;5.40;2.65;;;;;;;;;;5081595;28;20040;-83
2022/08/09 05:41:47;;;;;;;3.75;2.28;;;;;;;;;;5081243;28;20069;-81
2022/08/09 05:44:13;;;;;;;12.65;2.72;;;;;;;;;;5081846;28;20111;-80
2022/08/09 05:46:38;;;;;;;6.43;2.57;;;;;;;;;;5081012;28;20032;-82
2022/08/09 05:49:03;;;;;;;10.20;2.40;;;;;;;;;;5081839;28;20253;-81
2022/08/09 05:51:28;;;;;;;6.75;2.30;;;;;;;;;;5063731;28;20250;-80
2022/08/09 05:53:54;;;;;;;5.00;2.95;;;;;;;;;;5080367;28;20088;-79
2022/08/09 05:56:19;;;;;;;4.18;2.58;;;;;;;;;;5079720;28;20051;-81
2022/08/09 05:58:45;;;;;;;4.78;2.53;;;;;;;;;;5081497;28;20025;-83
2022/08/09 06:01:10;;;;;;;4.80;2.60;;;;;;;;;;5080702;28;20485;-81
2022/08/09 06:03:35;;;;;;;4.88;2.58;;;;;;;;;;5063499;28;20301;-81
2022/08/09 06:06:00;;;;;;;3.92;2.30;;;;;;;;;;5081976;28;20024;-81
2022/08/09 06:14:47;;;;;;;3.10;2.22;;;;;;;;;;5056100;28;20052;-81
2022/08/09 06:17:33;;;;;;;7.00;2.40;;;;;;;;;;4944986;29;20065;-81
2022/08/09 06:19:58;;;;;;;4.75;2.33;;;;;;;;;;5061213;28;20474;-81
2022/08/09 06:22:23;;;;;;;3.78;2.70;;;;;;;;;;5062732;28;20127;-82
2022/08/09 06:24:48;;;;;;;4.70;2.50;;;;;;;;;;5062396;28;20116;-82
2022/08/09 06:27:14;;;;;;;8.00;2.70;;;;;;;;;;5062808;28;20032;-81
2022/08/09 06:29:39;;;;;;;6.28;2.40;;;;;;;;;;5044028;28;20513;-81
2022/08/09 06:32:04;;;;;;;3.73;2.53;;;;;;;;;;5061458;28;20024;-81
2022/08/09 06:34:30;;;;;;;5.20;2.35;;;;;;;;;;5061045;28;20311;-80
2022/08/09 06:36:55;;;;;;;6.47;2.47;;;;;;;;;;5063850;28;20085;-82
2022/08/09 06:39:20;;;;;;;3.97;2.20;;;;;;;;;;5061493;28;20309;-81
2022/08/09 06:41:47;;;;;;;6.93;2.10;;;;;;;;;;5061423;28;20550;-81
2022/08/09 06:44:13;;;;;;;4.57;2.22;;;;;;;;;;5043693;28;20265;-81
2022/08/09 06:46:38;;;;;;;4.47;2.40;;;;;;;;;;5061424;28;20024;-82
2022/08/09 06:49:04;;;;;;;3.83;2.50;;;;;;;;;;5060576;28;20091;-81
2022/08/09 06:51:29;;;;;;;3.25;2.17;;;;;;;;;;5060533;28;20125;-81
2022/08/09 06:53:54;;;;;;;5.23;2.67;;;;;;;;;;5061575;28;20025;-81
2022/08/09 06:56:20;;;;;;;7.72;2.40;;;;;;;;;;5061275;28;20269;-81
2022/08/09 06:58:45;;;;;;;7.28;2.35;;;;;;;;;;5061167;28;20474;-80
2022/08/09 07:01:11;;;;;;;3.83;2.23;;;;;;;;;;5060774;28;20578;-81
2022/08/09 07:03:37;;;;;;;5.70;2.70;;;;;;;;;;5061558;28;20256;-81
2022/08/09 07:06:02;;;;;;;3.20;2.10;;;;;;;;;;5060893;28;20115;-81
2022/08/09 07:08:28;;;;;;;6.82;2.63;;;;;;;;;;5061954;28;20029;-81
2022/08/09 07:10:53;;;;;;;4.28;2.40;;;;;;;;;;5062795;28;20033;-81
2022/08/09 07:13:19;;;;;;;2.83;2.17;;;;;;;;;;5063197;28;20025;-81
2022/08/09 07:15:44;;;;;;;3.70;2.45;;;;;;;;;;5044948;28;20313;-81
2022/08/09 07:18:10;;;;;;;7.47;2.47;;;;;;;;;;5062683;28;20025;-81
2022/08/09 07:20:35;;;;;;;4.40;2.38;;;;;;;;;;5061994;28;20029;-81
2022/08/09 07:23:00;;;;;;;3.37;2.30;;;;;;;;;;5061197;28;20035;-79
2022/08/09 07:25:25;;;;;;;6.23;2.20;;;;;;;;;;5061747;28;20052;-80
2022/08/09 07:27:51;;;;;;;7.13;2.20;;;;;;;;;;5061524;28;20258;-79
2022/08/09 07:30:16;;;;;;;2.80;1.90;;;;;;;;;;5061900;28;20033;-81
2022/08/09 07:32:42;;;;;;;5.50;2.13;;;;;;;;;;5061819;28;20253;-81
2022/08/09 07:35:09;;;;;;;6.20;2.10;;;;;;;;;;5061859;28;20029;-80
2022/08/09 07:37:34;;;;;;;8.43;2.30;;;;;;;;;;5061932;28;20033;-80
2022/08/09 07:40:00;;;;;;;3.90;1.90;;;;;;;;;;5062403;28;20040;-81
2022/08/09 07:42:25;;;;;;;3.30;1.80;;;;;;;;;;5044114;28;20029;-80
2022/08/09 07:44:51;;;;;;;8.93;2.10;;;;;;;;;;5043519;28;20032;-82
2022/08/09 07:47:17;;;;;;;3.60;2.03;;;;;;;;;;5061492;28;20276;-79
2022/08/09 07:49:42;;;;;;;4.63;1.70;;;;;;;;;;5043884;28;20024;-80
2022/08/09 07:52:08;;;;;;;4.13;1.70;;;;;;;;;;5062090;28;20478;-81
2022/08/09 07:54:33;;;;;;;4.13;1.80;;;;;;;;;;5062977;28;20032;-79
2022/08/09 07:56:59;;;;;;;5.75;1.90;;;;;;;;;;5062515;28;20096;-80
2022/08/09 07:59:24;;;;;;;6.97;1.70;;;;;;;;;;5062788;28;20029;-81
2022/08/09 08:01:49;;;;;;;5.22;1.60;;;;;;;;;;5063263;28;20021;-80
2022/08/09 08:04:15;;;;;;;7.93;1.83;;;;;;;;;;5061571;28;20513;-79
2022/08/09 08:06:40;;;;;;;6.43;1.70;;;;;;;;;;5062389;28;20254;-80
2022/08/09 08:09:05;;;;;;;3.78;1.70;;;;;;;;;;5064520;28;20608;-81
2022/08/09 08:11:30;;;;;;;5.22;1.70;;;;;;;;;;5064060;28;20059;-80
2022/08/09 08:13:56;;;;;;;3.78;1.50;;;;;;;;;;5064234;28;20021;-80
2022/08/09 08:16:22;;;;;;;5.68;1.70;;;;;;;;;;5064707;28;20060;-81
2022/08/09 08:18:47;;;;;;;2.13;1.50;;;;;;;;;;5061487;28;20029;-81
2022/08/09 08:21:12;;;;;;;1.93;1.60;;;;;;;;;;5061412;28;20417;-81
2022/08/09 08:23:38;;;;;;;1.53;1.30;;;;;;;;;;5061610;28;20258;-80
2022/08/09 08:26:03;;;;;;;11.77;1.55;;;;;;;;;;5060779;28;20254;-81
2022/08/09 08:28:28;;;;;;;2.38;1.50;;;;;;;;;;5042152;28;20112;-80
2022/08/09 08:30:53;;;;;;;4.20;1.30;;;;;;;;;;5041533;28;20028;-81
2022/08/09 08:33:19;;;;;;;4.03;1.50;;;;;;;;;;5060274;28;20265;-80
2022/08/09 08:35:45;;;;;;;3.17;1.45;;;;;;;;;;5041513;28;20025;-80
2022/08/09 08:38:10;;;;;;;3.13;1.35;;;;;;;;;;5058826;28;20036;-81
2022/08/09 08:40:37;;;;;;;3.08;1.60;;;;;;;;;;5058888;28;20059;-80
2022/08/09 08:43:03;;;;;;;2.72;1.40;;;;;;;;;;5043744;28;20028;-79
2022/08/09 08:45:34;;;;;;;1.95;1.40;;;;;;;;;;5061924;28;20017;-81
2022/08/09 08:48:00;;;;;;;3.55;1.50;;;;;;;;;;5059487;28;20081;-81
2022/08/09 08:50:26;;;;;;;5.72;1.60;;;;;;;;;;5059508;28;20057;-81
2022/08/09 08:52:52;;;;;;;4.80;1.38;;;;;;;;;;5059912;28;20379;-81
2022/08/09 08:55:18;;;;;;;5.72;1.50;;;;;;;;;;5062188;28;20032;-81
2022/08/09 08:57:43;;;;;;;1.92;1.35;;;;;;;;;;5047039;28;20088;-80
2022/08/09 09:00:09;;;;;;;4.50;1.40;;;;;;;;;;5064191;28;20025;-80
2022/08/09 09:02:36;;;;;;;4.75;1.58;;;;;;;;;;5064949;28;20056;-81
2022/08/09 09:05:01;;;;;;;4.75;1.30;;;;;;;;;;5065221;28;20083;-80
2022/08/09 09:07:29;;;;;;;5.50;1.23;;;;;;;;;;5046297;28;20017;-81
2022/08/09 09:09:57;;;;;;;2.25;1.30;;;;;;;;;;5063728;28;20040;-81
2022/08/09 09:12:28;;;;;;;2.42;1.15;;;;;;;;;;5064160;28;20109;-81
2022/08/09 09:14:55;;;;;;;2.63;1.23;;;;;;;;;;5044929;28;20029;-81
2022/08/09 09:17:21;;;;;;;2.17;1.25;;;;;;;;;;5062870;28;20032;-80
2022/08/09 09:19:46;;;;;;;2.57;1.30;;;;;;;;;;5045802;28;20028;-80
2022/08/09 09:22:16;;;;;;;2.13;1.30;;;;;;;;;;5063653;28;20265;-80
2022/08/09 09:24:50;;;;;;;1.73;1.30;;;;;;;;;;5044116;28;20078;-82
2022/08/09 09:27:26;;;;;;;2.60;1.52;;;;;;;;;;5062030;28;20068;-79
2022/08/09 09:29:53;;;;;;;4.80;1.65;;;;;;;;;;5044305;28;20029;-80
2022/08/09 09:32:25;;;;;;;1.77;1.20;;;;;;;;;;5045533;28;20032;-81
2022/08/09 09:35:07;;;;;;;4.22;2.03;;;;;;;;;;5063726;28;20036;-81
2022/08/09 09:37:32;;;;;;;4.78;1.48;;;;;;;;;;5062958;28;20094;-80
2022/08/09 09:39:58;;;;;;;3.05;1.40;;;;;;;;;;5045210;28;20029;-80
2022/08/09 09:42:27;;;;;;;6.93;1.35;;;;;;;;;;5062585;28;20032;-79
2022/08/09 09:44:55;;;;;;;4.55;1.50;;;;;;;;;;5030214;28;20120;-81
2022/08/09 09:47:21;;;;;;;3.65;1.45;;;;;;;;;;5045569;28;20025;-80
2022/08/09 09:49:50;;;;;;;6.40;1.50;;;;;;;;;;5062912;28;20119;-79
2022/08/09 09:52:16;;;;;;;3.72;1.52;;;;;;;;;;5045365;28;20021;-81
2022/08/09 09:54:42;;;;;;;5.78;1.30;;;;;;;;;;5062845;28;20028;-80
2022/08/09 09:57:14;;;;;;;1.75;1.33;;;;;;;;;;5062327;28;20080;-80
2022/08/09 09:59:39;;;;;;;2.92;1.40;;;;;;;;;;5062992;28;20527;-80
2022/08/09 10:02:05;;;;;;;3.53;1.40;;;;;;;;;;5045172;28;20089;-80
2022/08/09 10:04:30;;;;;;;9.63;1.50;;;;;;;;;;5044931;28;20253;-80
2022/08/09 10:06:56;;;;;;;5.97;1.52;;;;;;;;;;5061129;28;20105;-81
2022/08/09 10:09:21;;;;;;;9.15;1.58;;;;;;;;;;5062179;28;20025;-80
2022/08/09 10:11:46;;;;;;;3.35;1.38;;;;;;;;;;5043439;28;20115;-80
2022/08/09 10:14:24;;;;;;;3.45;1.50;;;;;;;;;;5062320;28;20085;-80
2022/08/09 10:16:49;;;;;;;6.55;1.48;;;;;;;;;;5062532;28;20025;-80
2022/08/09 10:19:14;;;;;;;3.08;1.30;;;;;;;;;;5062736;28;20025;-81
2022/08/09 10:21:49;;;;;;;4.32;1.42;;;;;;;;;;5062631;28;20024;-79
2022/08/09 10:24:17;;;;;;;5.00;1.40;;;;;;;;;;5043834;28;20032;-80
2022/08/09 10:26:44;;;;;;;3.95;1.48;;;;;;;;;;5043998;28;20498;-78
2022/08/09 10:29:12;;;;;;;2.50;1.40;;;;;;;;;;5062268;28;20029;-81
2022/08/09 10:31:39;;;;;;;6.07;1.67;;;;;;;;;;5061422;28;20028;-77
2022/08/09 10:34:05;;;;;;;4.90;1.48;;;;;;;;;;5060631;28;20029;-82
2022/08/09 10:36:30;;;;;;;3.33;1.45;;;;;;;;;;5062401;28;20060;-81
2022/08/09 10:38:56;;;;;;;2.88;1.40;;;;;;;;;;5043887;28;20024;-81
2022/08/09 10:41:22;;;;;;;2.35;1.67;;;;;;;;;;5045516;28;20082;-79
2022/08/09 10:43:48;;;;;;;5.07;1.55;;;;;;;;;;5063709;28;20025;-79
2022/08/09 10:46:51;;;;;;;3.03;1.50;;;;;;;;;;5062556;28;20027;-79
2022/08/09 10:49:25;;;;;;;4.30;1.48;;;;;;;;;;5064597;28;20021;-80
2022/08/09 10:52:08;;;;;;;3.95;1.60;;;;;;;;;;5045985;28;20093;-80
2022/08/09 10:54:33;;;;;;;3.20;1.33;;;;;;;;;;5064932;28;20033;-78
2022/08/09 10:57:12;;;;;;;9.30;1.60;;;;;;;;;;5062710;28;20119;-79
2022/08/09 10:59:39;;;;;;;4.13;1.40;;;;;;;;;;5062573;28;20032;-79
2022/08/09 11:02:06;;;;;;;5.97;1.60;;;;;;;;;;5063808;28;20497;-79
2022/08/09 11:04:33;;;;;;;3.92;1.50;;;;;;;;;;5064033;28;20032;-79
2022/08/09 11:06:58;;;;;;;1.77;1.40;;;;;;;;;;5065202;28;20021;-80
2022/08/09 11:09:41;;;;;;;2.73;1.47;;;;;;;;;;5064856;28;20063;-79
2022/08/09 11:12:22;;;;;;;1.60;1.30;;;;;;;;;;5063368;28;20029;-81
2022/08/09 11:14:55;;;;;;;2.78;1.52;;;;;;;;;;5064124;28;20056;-79
2022/08/09 11:17:21;;;;;;;3.15;1.38;;;;;;;;;;5062577;28;20174;-80
2022/08/09 11:20:03;;;;;;;3.42;1.48;;;;;;;;;;5047428;28;20025;-80
2022/08/09 11:22:41;;;;;;;2.17;1.42;;;;;;;;;;5063390;28;20020;-80
2022/08/09 11:25:10;;;;;;;7.88;1.70;;;;;;;;;;5063364;28;20054;-79
2022/08/09 11:27:37;;;;;;;1.35;1.20;;;;;;;;;;5047444;28;20033;-79
2022/08/09 11:30:05;;;;;;;3.08;1.42;;;;;;;;;;5047335;28;20102;-80
2022/08/09 11:32:51;;;;;;;5.57;1.45;;;;;;;;;;5065845;28;20032;-80
2022/08/09 11:35:18;;;;;;;3.63;1.48;;;;;;;;;;5065307;28;20021;-79
2022/08/09 11:37:45;;;;;;;6.65;1.50;;;;;;;;;;5046131;28;20060;-79
2022/08/09 11:40:14;;;;;;;1.73;1.50;;;;;;;;;;5065978;28;20021;-79
2022/08/09 11:42:47;;;;;;;1.60;1.27;;;;;;;;;;5064982;28;20402;-80
2022/08/09 11:45:20;;;;;;;3.85;1.40;;;;;;;;;;5045396;28;20028;-78
2022/08/09 11:47:51;;;;;;;6.10;1.57;;;;;;;;;;5063279;28;20086;-79
2022/08/09 11:50:17;;;;;;;2.60;1.42;;;;;;;;;;5044458;28;20557;-79
2022/08/09 11:52:57;;;;;;;3.20;1.40;;;;;;;;;;5061736;28;20044;-82
2022/08/09 11:55:33;;;;;;;3.97;1.55;;;;;;;;;;5060509;28;20025;-80
2022/08/09 11:58:00;;;;;;;2.15;1.42;;;;;;;;;;5044682;28;20375;-81
2022/08/09 12:00:28;;;;;;;4.32;1.55;;;;;;;;;;5064498;28;20032;-82
2022/08/09 12:02:55;;;;;;;4.80;1.60;;;;;;;;;;5063752;28;20470;-81
2022/08/09 12:05:20;;;;;;;4.53;1.58;;;;;;;;;;5062756;28;20023;-82
2022/08/09 12:07:46;;;;;;;2.08;1.40;;;;;;;;;;5062381;28;20025;-80
2022/08/09 12:10:12;;;;;;;4.03;1.52;;;;;;;;;;5064133;28;20029;-82
2022/08/09 12:12:45;;;;;;;3.83;1.45;;;;;;;;;;5061486;28;20066;-80
2022/08/09 12:15:19;;;;;;;2.33;1.33;;;;;;;;;;5045219;28;20029;-80
2022/08/09 12:17:47;;;;;;;;;;;;;;;;;;5061647;28;20029;-81
2022/08/09 12:20:23;;;;;;;1.65;1.27;;;;;;;;;;5060195;28;20001;-80
2022/08/09 12:22:58;;;;;;;5.85;1.33;;;;;;;;;;5045417;28;20613;-81
2022/08/09 12:25:25;;;;;;;8.20;1.30;;;;;;;;;;5047132;28;20112;-80
2022/08/09 12:28:16;;;;;;;3.92;1.20;;;;;;;;;;5064607;28;20029;-81
2022/08/09 12:30:42;;;;;;;2.90;1.42;;;;;;;;;;5065833;28;20029;-82
2022/08/09 12:33:09;;;;;;;5.65;1.70;;;;;;;;;;5068477;28;20020;-81
2022/08/09 12:35:35;;;;;;;3.00;1.60;;;;;;;;;;5050715;28;20025;-80
2022/08/09 12:38:27;;;;;;;2.70;1.35;;;;;;;;;;5046950;28;20025;-80
2022/08/09 12:40:53;;;;;;;6.15;1.70;;;;;;;;;;5049344;28;20028;-82
2022/08/09 12:43:21;;;;;;;4.13;1.52;;;;;;;;;;5069887;28;20024;-84
2022/08/09 12:45:47;;;;;;;7.70;1.40;;;;;;;;;;5068802;28;20024;-80
2022/08/09 12:48:13;;;;;;;3.70;1.48;;;;;;;;;;5066446;28;20029;-81
2022/08/09 12:50:39;;;;;;;3.35;1.50;;;;;;;;;;5065272;28;20083;-82
2022/08/09 12:53:05;;;;;;;1.80;1.30;;;;;;;;;;5047339;28;20025;-79
2022/08/09 12:55:31;;;;;;;2.97;1.80;;;;;;;;;;5046909;28;20505;-80
2022/08/09 12:57:58;;;;;;;3.13;1.55;;;;;;;;;;5048915;28;20054;-82
2022/08/09 13:00:31;;;;;;;6.88;1.60;;;;;;;;;;5069884;28;20028;-83
2022/08/09 13:02:59;;;;;;;5.53;1.58;;;;;;;;;;5050565;28;20097;-82
2022/08/09 13:05:27;;;;;;;6.00;1.40;;;;;;;;;;5066394;28;20056;-81
2022/08/09 13:08:13;;;;;;;3.88;1.50;;;;;;;;;;5068552;28;20162;-82
2022/08/09 13:10:53;;;;;;;6.05;1.50;;;;;;;;;;5064280;28;20060;-83
2022/08/09 13:13:32;;;;;;;4.95;1.33;;;;;;;;;;5066697;28;20029;-82
2022/08/09 13:16:07;;;;;;;5.72;1.80;;;;;;;;;;5066375;28;20110;-82
2022/08/09 13:18:46;;;;;;;3.13;1.80;;;;;;;;;;5068835;28;20021;-80
2022/08/09 13:21:25;;;;;;;4.43;1.50;;;;;;;;;;5070911;28;20020;-81
2022/08/09 13:24:02;;;;;;;8.10;1.77;;;;;;;;;;5068582;28;20104;-80
2022/08/09 13:26:42;;;;;;;5.63;1.95;;;;;;;;;;5067482;28;20146;-81
2022/08/09 13:29:11;;;;;;;7.13;1.70;;;;;;;;;;5069745;28;20029;-83
2022/08/09 13:31:58;;;;;;;4.80;1.73;;;;;;;;;;5070440;28;20021;-82
2022/08/09 13:34:26;;;;;;;3.15;1.70;;;;;;;;;;5069052;28;20159;-81
2022/08/09 13:36:51;;;;;;;6.10;1.80;;;;;;;;;;5069410;28;20024;-82
2022/08/09 13:39:17;;;;;;;2.95;1.60;;;;;;;;;;5069213;28;20474;-80
2022/08/09 13:41:42;;;;;;;4.20;1.70;;;;;;;;;;5066618;28;20021;-81
2022/08/09 13:44:07;;;;;;;5.80;1.70;;;;;;;;;;5064704;28;20031;-81
2022/08/09 13:46:32;;;;;;;4.25;2.22;;;;;;;;;;5062487;28;20751;-81
2022/08/09 13:48:58;;;;;;;4.53;1.60;;;;;;;;;;5062792;28;20028;-82
2022/08/09 13:51:23;;;;;;;3.92;1.95;;;;;;;;;;5067506;28;20024;-80
2022/08/09 13:53:48;;;;;;;5.77;1.83;;;;;;;;;;5063587;28;20455;-84
2022/08/09 13:56:13;;;;;;;3.40;1.53;;;;;;;;;;5062834;28;20278;-81
2022/08/09 13:58:39;;;;;;;2.93;1.63;;;;;;;;;;5063564;28;20292;-82
2022/08/09 14:01:04;;;;;;;2.88;1.60;;;;;;;;;;5063225;28;20028;-82
2022/08/09 14:03:29;;;;;;;3.03;1.58;;;;;;;;;;5063012;28;20112;-82
2022/08/09 14:05:57;;;;;;;2.83;1.60;;;;;;;;;;5044608;28;20063;-78
2022/08/09 14:08:23;;;;;;;2.28;1.52;;;;;;;;;;5061914;28;20025;-78
2022/08/09 14:10:49;;;;;;;3.72;1.63;;;;;;;;;;5061227;28;20024;-79
2022/08/09 14:13:14;;;;;;;3.60;1.58;;;;;;;;;;5061148;28;20078;-80
2022/08/09 14:15:39;;;;;;;3.47;1.80;;;;;;;;;;5061855;28;20123;-79
2022/08/09 14:18:05;;;;;;;2.90;1.80;;;;;;;;;;5062547;28;20052;-79
2022/08/09 14:20:30;;;;;;;2.30;1.65;;;;;;;;;;5045671;28;20751;-80
2022/08/09 14:22:55;;;;;;;2.55;1.45;;;;;;;;;;5063138;28;20029;-81
2022/08/09 14:25:21;;;;;;;2.20;1.53;;;;;;;;;;5062050;28;20059;-81
2022/08/09 14:27:46;;;;;;;5.90;1.73;;;;;;;;;;5064080;28;20261;-78
2022/08/09 14:30:11;;;;;;;2.93;1.43;;;;;;;;;;5044802;28;20032;-79
2022/08/09 14:32:36;;;;;;;4.45;1.75;;;;;;;;;;5064601;28;20021;-79
2022/08/09 14:35:02;;;;;;;6.47;1.98;;;;;;;;;;5065107;28;20029;-78
2022/08/09 14:37:27;;;;;;;3.03;1.58;;;;;;;;;;5047491;28;20036;-80
2022/08/09 14:39:53;;;;;;;5.90;1.80;;;;;;;;;;5065081;28;20059;-80
2022/08/09 14:42:19;;;;;;;4.63;1.95;;;;;;;;;;5064048;28;20035;-80
2022/08/09 14:44:47;;;;;;;3.63;1.55;;;;;;;;;;5046701;28;20137;-79
2022/08/09 14:47:13;;;;;;;10.95;1.70;;;;;;;;;;5064854;28;20025;-81
2022/08/09 14:49:39;;;;;;;2.53;1.60;;;;;;;;;;5048274;28;20032;-79
2022/08/09 14:52:04;;;;;;;10.95;2.28;;;;;;;;;;5062700;28;20099;-79
2022/08/09 14:54:30;;;;;;;3.17;1.50;;;;;;;;;;5042613;28;20043;-79